Terminal Aerodrome Forecast
Issued by NWS Sioux Falls, SD

Home | Current Version | Previous Version | Graphics & Text | Print | Product List | Glossary On
Versions: 1 2 3 4 5 6 7 8 9 10 11 12 13 14 15 16 17 18 19
000
FTUS43 KFSD 142326
TAFFSD
TAF
KFSD 142326Z 1500/1524 02006KT P6SM SCT035 SCT250
     FM150400 06005KT P6SM SCT250
     FM151100 10005KT P6SM VCSH BKN030
     FM151400 11005KT P6SM BKN035
     FM151600 11006KT P6SM BKN070=

USA.gov is the U.S. government's official web portal to all federal, state and local government web resources and services.